createdAt,value
2022-08-03T00:12:51.260Z,15.91
2022-08-03T00:42:54.227Z,15.66
2022-08-03T01:12:57.665Z,15.58
2022-08-03T01:43:00.919Z,15.67
2022-08-03T02:13:04.385Z,15.92
2022-08-03T02:43:07.353Z,15.97
2022-08-03T03:13:10.724Z,16.12
2022-08-03T03:43:13.545Z,16.23
2022-08-03T04:13:16.762Z,16.43
2022-08-03T04:43:20.526Z,16.78
2022-08-03T05:13:23.839Z,17.78
2022-08-03T05:43:26.552Z,18.88
2022-08-03T06:13:29.787Z,20.64
2022-08-03T06:43:35.925Z,21.45
2022-08-03T07:13:39.131Z,22.53
2022-08-03T07:43:42.288Z,23.42
2022-08-03T08:13:45.976Z,24.82
2022-08-03T08:43:49.255Z,26.38
2022-08-03T09:13:52.802Z,27.65
2022-08-03T09:43:55.494Z,28.99
2022-08-03T10:14:01.506Z,29.81
2022-08-03T10:44:04.454Z,30.22
2022-08-03T11:14:08.311Z,31.26
2022-08-03T11:44:11.134Z,31.81
2022-08-03T12:14:49.050Z,32.85
2022-08-03T12:44:37.304Z,33.55
2022-08-03T13:14:40.586Z,33.56
2022-08-03T13:44:44.022Z,33.60
2022-08-03T14:14:47.852Z,33.67
2022-08-03T14:44:50.814Z,33.03
2022-08-03T15:14:54.193Z,33.19
2022-08-03T15:44:57.387Z,33.22
2022-08-03T16:15:00.714Z,33.18
2022-08-03T16:45:03.951Z,32.38
2022-08-03T17:15:07.247Z,30.89
2022-08-03T17:45:15.846Z,29.89
2022-08-03T18:15:21.203Z,28.76
2022-08-03T18:45:57.794Z,27.41
2022-08-03T19:15:51.362Z,25.74
2022-08-03T19:46:06.451Z,24.08
2022-08-03T20:16:11.010Z,23.03
2022-08-03T20:46:31.700Z,22.18
2022-08-03T21:16:38.417Z,21.47
2022-08-03T21:46:41.173Z,20.76
2022-08-03T22:16:44.868Z,20.25
2022-08-03T22:46:47.591Z,20.04
2022-08-03T23:16:51.209Z,19.78
2022-08-03T23:46:53.945Z,19.60
